nws-alerts: Checking more than four warning/county codes can delay the loading of your pages. You should use a cron job to get the data.
EllijayWeather Historical Data
Daily Summary for March 07, 2020 Units:  English    Metric   Both
Daily Weekly Monthly Yearly
  High: Low: Average:
Temperature: 57.0 °F 32.0 °F 41.9 °F
Dew Point: 36.0 °F 25.0 °F 28.7 °F
Humidity: 88% 32% 62%
Wind Speed: 11mph 0mph 3.2mph
Wind Gust: 16mph - -
Wind- - WNW
Pressure: 30.6 in 30.4 in -
Precipitation: 0.000 in    
 
 
Tabular Data for March 07, 2020
Time Temperature Dew Point Pressure Wind Wind Speed Wind Gust Humidity Rainfall Rate (Hourly)
00:04 36.0 °F 25.0 °F 30.4 in North 4 mph 7 mph 65% 0.000 in
00:09 36.0 °F 26.0 °F 30.4 in NNW 3 mph 3 mph 67% 0.000 in
00:14 36.0 °F 26.0 °F 30.4 in NNW 4 mph 6 mph 66% 0.000 in
00:19 36.0 °F 26.0 °F 30.4 in ENE 3 mph 3 mph 67% 0.000 in
00:24 36.0 °F 26.0 °F 30.4 in NW 5 mph 8 mph 67% 0.000 in
00:29 35.0 °F 25.0 °F 30.4 in NNW 3 mph 4 mph 66% 0.000 in
00:34 35.0 °F 26.0 °F 30.4 in WNW 5 mph 8 mph 67% 0.000 in
00:39 35.0 °F 26.0 °F 30.4 in NW 7 mph 9 mph 67% 0.000 in
00:44 35.0 °F 26.0 °F 30.4 in NNW 6 mph 10 mph 67% 0.000 in
00:49 35.0 °F 26.0 °F 30.4 in NNW 4 mph 8 mph 67% 0.000 in
00:54 35.0 °F 26.0 °F 30.4 in NNW 5 mph 7 mph 67% 0.000 in
00:59 35.0 °F 26.0 °F 30.4 in NNW 3 mph 7 mph 67% 0.000 in
01:04 35.0 °F 26.0 °F 30.4 in NNW 10 mph 10 mph 67% 0.000 in
01:09 35.0 °F 26.0 °F 30.4 in NW 6 mph 10 mph 67% 0.000 in
01:14 36.0 °F 25.0 °F 30.4 in NW 8 mph 10 mph 66% 0.000 in
01:19 35.0 °F 26.0 °F 30.4 in WNW 8 mph 9 mph 67% 0.000 in
01:24 35.0 °F 26.0 °F 30.4 in NW 6 mph 10 mph 67% 0.000 in
01:29 35.0 °F 26.0 °F 30.4 in NW 7 mph 8 mph 67% 0.000 in
01:34 35.0 °F 26.0 °F 30.4 in North 4 mph 6 mph 67% 0.000 in
01:39 35.0 °F 26.0 °F 30.4 in NW 5 mph 7 mph 67% 0.000 in
01:44 35.0 °F 25.0 °F 30.4 in West 4 mph 7 mph 67% 0.000 in
01:49 35.0 °F 25.0 °F 30.4 in NNE 2 mph 5 mph 67% 0.000 in
01:54 35.0 °F 26.0 °F 30.4 in NNE 1 mph 2 mph 68% 0.000 in
01:59 35.0 °F 26.0 °F 30.4 in North 1 mph 1 mph 68% 0.000 in
02:04 35.0 °F 26.0 °F 30.4 in North 4 mph 4 mph 69% 0.000 in
02:09 35.0 °F 26.0 °F 30.4 in NW 3 mph 5 mph 69% 0.000 in
02:14 35.0 °F 25.0 °F 30.4 in NNW 4 mph 7 mph 68% 0.000 in
02:19 35.0 °F 26.0 °F 30.4 in North 2 mph 5 mph 69% 0.000 in
02:24 35.0 °F 26.0 °F 30.4 in NNW 3 mph 6 mph 69% 0.000 in
02:29 35.0 °F 26.0 °F 30.4 in NE 3 mph 5 mph 69% 0.000 in
02:34 35.0 °F 26.0 °F 30.4 in NE 1 mph 1 mph 70% 0.000 in
02:39 35.0 °F 26.0 °F 30.4 in West 3 mph 3 mph 70% 0.000 in
02:44 34.0 °F 26.0 °F 30.4 in NNW 1 mph 3 mph 70% 0.000 in
02:49 34.0 °F 26.0 °F 30.4 in WNW 5 mph 7 mph 70% 0.000 in
02:54 34.0 °F 26.0 °F 30.4 in NNW 3 mph 6 mph 71% 0.000 in
02:59 34.0 °F 26.0 °F 30.4 in NNW 3 mph 7 mph 70% 0.000 in
03:04 34.0 °F 26.0 °F 30.4 in NW 6 mph 6 mph 70% 0.000 in
03:09 34.0 °F 26.0 °F 30.4 in North 3 mph 4 mph 70% 0.000 in
03:14 34.0 °F 26.0 °F 30.4 in NNW 4 mph 4 mph 70% 0.000 in
03:19 34.0 °F 26.0 °F 30.4 in NNW 1 mph 4 mph 71% 0.000 in
03:24 34.0 °F 26.0 °F 30.4 in NNW 1 mph 1 mph 71% 0.000 in
03:29 34.0 °F 26.0 °F 30.4 in NE 3 mph 4 mph 72% 0.000 in
03:34 34.0 °F 26.0 °F 30.4 in NNW 1 mph 2 mph 72% 0.000 in
03:39 34.0 °F 26.0 °F 30.4 in Calm   2 mph 72% 0.000 in
03:44 34.0 °F 26.0 °F 30.4 in WSW 1 mph 1 mph 73% 0.000 in
03:49 34.0 °F 26.0 °F 30.4 in NNW 3 mph 3 mph 72% 0.000 in
03:54 34.0 °F 26.0 °F 30.4 in North 2 mph 3 mph 73% 0.000 in
03:59 34.0 °F 26.0 °F 30.4 in NNW 2 mph 2 mph 72% 0.000 in
04:04 34.0 °F 26.0 °F 30.4 in Calm     73% 0.000 in
04:09 34.0 °F 26.0 °F 30.4 in Calm     74% 0.000 in
04:14 34.0 °F 26.0 °F 30.4 in NNW 2 mph 3 mph 74% 0.000 in
04:19 33.0 °F 26.0 °F 30.4 in NW 5 mph 8 mph 74% 0.000 in
04:24 33.0 °F 26.0 °F 30.4 in Calm   8 mph 74% 0.000 in
04:29 33.0 °F 26.0 °F 30.4 in NW 1 mph 4 mph 75% 0.000 in
04:34 33.0 °F 26.0 °F 30.4 in North 3 mph 4 mph 74% 0.000 in
04:39 33.0 °F 26.0 °F 30.4 in ESE 3 mph 4 mph 75% 0.000 in
04:44 33.0 °F 26.0 °F 30.4 in NNE 2 mph 3 mph 74% 0.000 in
04:49 33.0 °F 26.0 °F 30.4 in North 7 mph 8 mph 73% 0.000 in
04:54 33.0 °F 26.0 °F 30.4 in North 2 mph 8 mph 73% 0.000 in
04:59 33.0 °F 26.0 °F 30.4 in North 2 mph 2 mph 74% 0.000 in
05:04 33.0 °F 26.0 °F 30.4 in WNW 5 mph 6 mph 74% 0.000 in
05:09 33.0 °F 26.0 °F 30.4 in Calm   2 mph 74% 0.000 in
05:14 33.0 °F 26.0 °F 30.4 in NNW 1 mph 2 mph 76% 0.000 in
05:19 33.0 °F 26.0 °F 30.4 in NNE 1 mph 3 mph 75% 0.000 in
05:24 33.0 °F 26.0 °F 30.4 in NNE 2 mph 2 mph 76% 0.000 in
05:29 33.0 °F 26.0 °F 30.4 in NNE 1 mph 5 mph 75% 0.000 in
05:34 32.0 °F 26.0 °F 30.4 in NNW 6 mph 6 mph 76% 0.000 in
05:39 33.0 °F 26.0 °F 30.4 in Calm   2 mph 76% 0.000 in
05:44 33.0 °F 26.0 °F 30.4 in NNW 2 mph 3 mph 76% 0.000 in
05:49 33.0 °F 26.0 °F 30.4 in NNW 2 mph 3 mph 76% 0.000 in
05:54 32.0 °F 26.0 °F 30.4 in Calm     76% 0.000 in
05:59 32.0 °F 26.0 °F 30.4 in Calm   3 mph 76% 0.000 in
06:04 32.0 °F 26.0 °F 30.4 in Calm     76% 0.000 in
06:09 32.0 °F 25.0 °F 30.4 in NNE 1 mph 4 mph 76% 0.000 in
06:14 32.0 °F 25.0 °F 30.4 in Calm   4 mph 76% 0.000 in
06:19 32.0 °F 26.0 °F 30.4 in NNW 3 mph 4 mph 77% 0.000 in
06:24 32.0 °F 26.0 °F 30.4 in NNW 3 mph 5 mph 76% 0.000 in
06:29 33.0 °F 25.0 °F 30.4 in WNW 5 mph 6 mph 75% 0.000 in
06:34 33.0 °F 26.0 °F 30.5 in WNW 5 mph 8 mph 74% 0.000 in
06:39 33.0 °F 25.0 °F 30.5 in NW 8 mph 9 mph 73% 0.000 in
06:44 33.0 °F 26.0 °F 30.5 in NNE 2 mph 3 mph 74% 0.000 in
06:49 33.0 °F 26.0 °F 30.5 in North 4 mph 6 mph 74% 0.000 in
06:54 33.0 °F 26.0 °F 30.5 in NNW 5 mph 8 mph 75% 0.000 in
06:59 33.0 °F 25.0 °F 30.5 in NNW 9 mph 9 mph 73% 0.000 in
07:04 33.0 °F 25.0 °F 30.5 in WNW 7 mph 9 mph 73% 0.000 in
07:09 33.0 °F 26.0 °F 30.5 in NW 2 mph 5 mph 74% 0.000 in
07:14 33.0 °F 26.0 °F 30.5 in NW 2 mph 4 mph 75% 0.000 in
07:19 33.0 °F 26.0 °F 30.5 in NW 5 mph 8 mph 75% 0.000 in
07:24 33.0 °F 26.0 °F 30.5 in NNW 4 mph 12 mph 75% 0.000 in
07:29 33.0 °F 26.0 °F 30.5 in NNW 6 mph 9 mph 74% 0.000 in
07:34 33.0 °F 26.0 °F 30.5 in NW 4 mph 11 mph 74% 0.000 in
07:39 33.0 °F 26.0 °F 30.5 in NW 3 mph 6 mph 75% 0.000 in
07:44 33.0 °F 26.0 °F 30.5 in NW 4 mph 9 mph 74% 0.000 in
07:49 33.0 °F 26.0 °F 30.5 in North 3 mph 9 mph 74% 0.000 in
07:54 34.0 °F 26.0 °F 30.5 in NW 7 mph 10 mph 73% 0.000 in
07:59 34.0 °F 26.0 °F 30.5 in NW 3 mph 9 mph 73% 0.000 in
08:04 34.0 °F 26.0 °F 30.5 in NW 8 mph 13 mph 73% 0.000 in
08:09 34.0 °F 26.0 °F 30.5 in NNW 6 mph 13 mph 72% 0.000 in
08:14 34.0 °F 26.0 °F 30.5 in NNW 7 mph 16 mph 72% 0.000 in
08:19 35.0 °F 26.0 °F 30.5 in NNE 4 mph 16 mph 71% 0.000 in
08:24 35.0 °F 27.0 °F 30.5 in North 6 mph 9 mph 72% 0.000 in
08:29 35.0 °F 26.0 °F 30.5 in NNE 6 mph 7 mph 71% 0.000 in
08:34 35.0 °F 27.0 °F 30.5 in NNW 7 mph 10 mph 71% 0.000 in
08:39 35.0 °F 27.0 °F 30.5 in NNW 8 mph 10 mph 71% 0.000 in
08:44 35.0 °F 27.0 °F 30.5 in NNW 9 mph 11 mph 71% 0.000 in
08:49 36.0 °F 27.0 °F 30.5 in NW 7 mph 11 mph 70% 0.000 in
08:54 36.0 °F 27.0 °F 30.5 in NW 7 mph 11 mph 70% 0.000 in
08:59 36.0 °F 27.0 °F 30.5 in West 7 mph 11 mph 70% 0.000 in
09:04 37.0 °F 27.0 °F 30.5 in NW 9 mph 11 mph 69% 0.000 in
09:09 37.0 °F 27.0 °F 30.5 in NW 5 mph 7 mph 68% 0.000 in
09:14 37.0 °F 27.0 °F 30.5 in North 8 mph 11 mph 68% 0.000 in
09:19 37.0 °F 27.0 °F 30.5 in NW 4 mph 10 mph 67% 0.000 in
09:24 38.0 °F 28.0 °F 30.5 in NW 9 mph 11 mph 67% 0.000 in
09:29 38.0 °F 28.0 °F 30.5 in NW 8 mph 11 mph 67% 0.000 in
09:34 39.0 °F 28.0 °F 30.5 in NW 11 mph 15 mph 66% 0.000 in
09:39 39.0 °F 28.0 °F 30.5 in NW 7 mph 15 mph 65% 0.000 in
09:44 39.0 °F 28.0 °F 30.5 in NNW 11 mph 12 mph 65% 0.000 in
09:49 39.0 °F 28.0 °F 30.5 in NNW 7 mph 10 mph 64% 0.000 in
09:54 40.0 °F 28.0 °F 30.5 in NNW 5 mph 10 mph 63% 0.000 in
09:59 40.0 °F 29.0 °F 30.5 in WNW 7 mph 8 mph 64% 0.000 in
10:04 41.0 °F 29.0 °F 30.5 in NNW 5 mph 7 mph 63% 0.000 in
10:09 41.0 °F 28.0 °F 30.5 in NW 4 mph 7 mph 61% 0.000 in
10:14 41.0 °F 29.0 °F 30.5 in NNW 10 mph 12 mph 61% 0.000 in
10:19 41.0 °F 28.0 °F 30.5 in NW 8 mph 10 mph 60% 0.000 in
10:24 42.0 °F 28.0 °F 30.5 in North 5 mph 8 mph 59% 0.000 in
10:29 42.0 °F 28.0 °F 30.5 in WNW 7 mph 7 mph 58% 0.000 in
10:34 42.0 °F 28.0 °F 30.5 in NNW 5 mph 7 mph 57% 0.000 in
10:39 43.0 °F 29.0 °F 30.5 in NNE 5 mph 10 mph 57% 0.000 in
10:44 44.0 °F 28.0 °F 30.5 in NNW 3 mph 8 mph 55% 0.000 in
10:49 44.0 °F 29.0 °F 30.5 in NNW 3 mph 6 mph 56% 0.000 in
10:54 44.0 °F 28.0 °F 30.5 in North 7 mph 7 mph 54% 0.000 in
10:59 44.0 °F 29.0 °F 30.5 in NNW 7 mph 9 mph 55% 0.000 in
11:04 44.0 °F 30.0 °F 30.6 in WNW 6 mph 9 mph 56% 0.000 in
11:09 45.0 °F 29.0 °F 30.6 in NW 6 mph 8 mph 55% 0.000 in
11:14 45.0 °F 29.0 °F 30.5 in NNW 4 mph 4 mph 54% 0.000 in
11:19 45.0 °F 30.0 °F 30.6 in West 5 mph 8 mph 54% 0.000 in
11:24 46.0 °F 29.0 °F 30.6 in NNW 4 mph 6 mph 52% 0.000 in
11:29 46.0 °F 29.0 °F 30.6 in NNW 6 mph 6 mph 51% 0.000 in
11:34 46.0 °F 29.0 °F 30.6 in NNW 8 mph 9 mph 51% 0.000 in
11:39 46.0 °F 29.0 °F 30.5 in NNW 3 mph 8 mph 51% 0.000 in
11:44 46.0 °F 29.0 °F 30.6 in NNW 4 mph 6 mph 51% 0.000 in
11:49 47.0 °F 30.0 °F 30.5 in North 4 mph 4 mph 53% 0.000 in
11:54 47.0 °F 29.0 °F 30.5 in North 6 mph 7 mph 50% 0.000 in
11:59 47.0 °F 29.0 °F 30.5 in WNW 4 mph 6 mph 49% 0.000 in
12:04 48.0 °F 29.0 °F 30.5 in NNW 5 mph 7 mph 48% 0.000 in
12:09 48.0 °F 29.0 °F 30.5 in NNW 7 mph 8 mph 47% 0.000 in
12:14 48.0 °F 29.0 °F 30.5 in WNW 4 mph 5 mph 47% 0.000 in
12:19 48.0 °F 29.0 °F 30.5 in NNW 10 mph 11 mph 47% 0.000 in
12:24 49.0 °F 30.0 °F 30.5 in NW 5 mph 11 mph 47% 0.000 in
12:29 50.0 °F 29.0 °F 30.5 in NW 6 mph 7 mph 45% 0.000 in
12:34 50.0 °F 28.0 °F 30.5 in WNW 4 mph 6 mph 44% 0.000 in
12:39 50.0 °F 29.0 °F 30.5 in NNW 4 mph 6 mph 44% 0.000 in
12:44 50.0 °F 28.0 °F 30.5 in NNW 7 mph 10 mph 42% 0.000 in
12:49 50.0 °F 30.0 °F 30.5 in NW 7 mph 10 mph 45% 0.000 in
12:54 51.0 °F 28.0 °F 30.5 in WNW 5 mph 8 mph 42% 0.000 in
12:59 51.0 °F 28.0 °F 30.5 in NW 3 mph 8 mph 42% 0.000 in
13:04 51.0 °F 28.0 °F 30.5 in NNW 7 mph 8 mph 40% 0.000 in
13:09 52.0 °F 28.0 °F 30.5 in NNW 2 mph 4 mph 40% 0.000 in
13:14 52.0 °F 28.0 °F 30.5 in NW 3 mph 6 mph 40% 0.000 in
13:19 52.0 °F 29.0 °F 30.5 in NW 7 mph 9 mph 41% 0.000 in
13:24 53.0 °F 30.0 °F 30.5 in NW 4 mph 5 mph 41% 0.000 in
13:29 53.0 °F 30.0 °F 30.5 in NW 3 mph 4 mph 41% 0.000 in
13:34 53.0 °F 30.0 °F 30.5 in WNW 4 mph 7 mph 41% 0.000 in
13:39 53.0 °F 29.0 °F 30.5 in North 3 mph 3 mph 40% 0.000 in
13:44 54.0 °F 29.0 °F 30.5 in NW 5 mph 8 mph 39% 0.000 in
13:49 54.0 °F 30.0 °F 30.5 in NNW 5 mph 11 mph 39% 0.000 in
13:54 54.0 °F 29.0 °F 30.5 in NNW 5 mph 5 mph 38% 0.000 in
13:59 55.0 °F 30.0 °F 30.5 in NW 1 mph 5 mph 38% 0.000 in
14:04 55.0 °F 29.0 °F 30.5 in North 4 mph 6 mph 37% 0.000 in
14:09 55.0 °F 29.0 °F 30.5 in NNW 4 mph 6 mph 36% 0.000 in
14:14 56.0 °F 29.0 °F 30.5 in North 4 mph 7 mph 36% 0.000 in
14:19 56.0 °F 29.0 °F 30.5 in NNW 6 mph 7 mph 36% 0.000 in
14:24 56.0 °F 29.0 °F 30.5 in NNW 2 mph 5 mph 36% 0.000 in
14:29 56.0 °F 29.0 °F 30.5 in North 4 mph 6 mph 35% 0.000 in
14:34 56.0 °F 29.0 °F 30.5 in NNW 1 mph 6 mph 36% 0.000 in
14:39 56.0 °F 29.0 °F 30.5 in NNW 5 mph 7 mph 35% 0.000 in
14:44 56.0 °F 30.0 °F 30.5 in NW 4 mph 6 mph 37% 0.000 in
14:49 56.0 °F 29.0 °F 30.5 in NW 7 mph 12 mph 36% 0.000 in
14:54 56.0 °F 28.0 °F 30.5 in NNW 3 mph 7 mph 34% 0.000 in
14:59 56.0 °F 29.0 °F 30.5 in NNW 4 mph 7 mph 35% 0.000 in
15:04 56.0 °F 29.0 °F 30.5 in NW 5 mph 6 mph 35% 0.000 in
15:09 56.0 °F 29.0 °F 30.5 in NW 2 mph 5 mph 36% 0.000 in
15:14 56.0 °F 29.0 °F 30.5 in NNW 4 mph 5 mph 35% 0.000 in
15:19 56.0 °F 29.0 °F 30.5 in NNW 7 mph 8 mph 36% 0.000 in
15:24 56.0 °F 28.0 °F 30.5 in NNW 5 mph 8 mph 34% 0.000 in
15:29 56.0 °F 29.0 °F 30.5 in NW 3 mph 4 mph 36% 0.000 in
15:34 56.0 °F 29.0 °F 30.5 in NNW 1 mph 5 mph 35% 0.000 in
15:39 57.0 °F 29.0 °F 30.5 in NW 2 mph 2 mph 35% 0.000 in
15:44 57.0 °F 30.0 °F 30.5 in NW 5 mph 8 mph 36% 0.000 in
15:49 57.0 °F 29.0 °F 30.5 in NNW 6 mph 6 mph 34% 0.000 in
15:54 57.0 °F 28.0 °F 30.5 in NW 7 mph 7 mph 33% 0.000 in
15:59 57.0 °F 28.0 °F 30.5 in NW 4 mph 4 mph 33% 0.000 in
16:04 57.0 °F 29.0 °F 30.5 in West 3 mph 5 mph 34% 0.000 in
16:09 57.0 °F 28.0 °F 30.5 in North 3 mph 7 mph 33% 0.000 in
16:14 57.0 °F 27.0 °F 30.5 in NNE 5 mph 5 mph 32% 0.000 in
16:19 57.0 °F 29.0 °F 30.5 in Calm   1 mph 34% 0.000 in
16:24 57.0 °F 27.0 °F 30.5 in NNW 5 mph 5 mph 32% 0.000 in
16:29 57.0 °F 27.0 °F 30.4 in NW 2 mph 7 mph 32% 0.000 in
16:34 57.0 °F 30.0 °F 30.5 in NW 2 mph 4 mph 36% 0.000 in
16:39 57.0 °F 30.0 °F 30.5 in NNW 5 mph 6 mph 36% 0.000 in
16:44 57.0 °F 31.0 °F 30.5 in WNW 9 mph 9 mph 37% 0.000 in
16:49 57.0 °F 31.0 °F 30.5 in NW 5 mph 7 mph 38% 0.000 in
16:54 56.0 °F 29.0 °F 30.5 in NNW 3 mph 6 mph 35% 0.000 in
16:59 56.0 °F 29.0 °F 30.5 in NNW 4 mph 5 mph 35% 0.000 in
17:04 56.0 °F 30.0 °F 30.5 in NW 3 mph 3 mph 36% 0.000 in
17:09 56.0 °F 31.0 °F 30.5 in NW 1 mph 3 mph 38% 0.000 in
17:14 56.0 °F 31.0 °F 30.5 in NNW 2 mph 3 mph 38% 0.000 in
17:19 56.0 °F 30.0 °F 30.5 in NNW 1 mph 3 mph 37% 0.000 in
17:24 56.0 °F 31.0 °F 30.5 in NW 3 mph 7 mph 39% 0.000 in
17:29 56.0 °F 29.0 °F 30.5 in NW 4 mph 7 mph 36% 0.000 in
17:34 56.0 °F 31.0 °F 30.5 in NNW 3 mph 5 mph 38% 0.000 in
17:39 56.0 °F 31.0 °F 30.5 in NW 3 mph 4 mph 39% 0.000 in
17:44 55.0 °F 31.0 °F 30.5 in NW 2 mph 3 mph 39% 0.000 in
17:49 55.0 °F 29.0 °F 30.5 in NW 4 mph 5 mph 37% 0.000 in
17:54 55.0 °F 30.0 °F 30.5 in NNW 4 mph 5 mph 38% 0.000 in
17:59 55.0 °F 33.0 °F 30.5 in Calm   1 mph 43% 0.000 in
18:04 54.0 °F 34.0 °F 30.5 in Calm   3 mph 46% 0.000 in
18:09 54.0 °F 34.0 °F 30.5 in Calm     48% 0.000 in
18:14 53.0 °F 34.0 °F 30.5 in Calm     48% 0.000 in
18:19 53.0 °F 33.0 °F 30.5 in Calm     48% 0.000 in
18:24 52.0 °F 34.0 °F 30.5 in Calm     50% 0.000 in
18:29 51.0 °F 36.0 °F 30.5 in Calm     56% 0.000 in
18:34 51.0 °F 36.0 °F 30.5 in Calm     56% 0.000 in
18:39 50.0 °F 34.0 °F 30.5 in Calm     55% 0.000 in
18:44 50.0 °F 33.0 °F 30.5 in Calm     52% 0.000 in
18:49 49.0 °F 33.0 °F 30.5 in Calm     55% 0.000 in
18:54 49.0 °F 35.0 °F 30.5 in Calm     58% 0.000 in
18:59 48.0 °F 34.0 °F 30.5 in Calm     58% 0.000 in
19:04 48.0 °F 33.0 °F 30.5 in Calm     56% 0.000 in
19:09 48.0 °F 33.0 °F 30.5 in Calm     56% 0.000 in
19:14 48.0 °F 33.0 °F 30.5 in Calm     57% 0.000 in
19:19 47.0 °F 34.0 °F 30.5 in Calm     60% 0.000 in
19:24 47.0 °F 33.0 °F 30.5 in Calm     60% 0.000 in
19:29 46.0 °F 34.0 °F 30.5 in Calm     63% 0.000 in
19:34 46.0 °F 33.0 °F 30.5 in Calm     61% 0.000 in
19:39 45.0 °F 33.0 °F 30.5 in Calm     63% 0.000 in
19:44 45.0 °F 33.0 °F 30.5 in Calm     63% 0.000 in
19:49 45.0 °F 33.0 °F 30.5 in Calm     65% 0.000 in
19:54 44.0 °F 34.0 °F 30.5 in Calm     67% 0.000 in
19:59 44.0 °F 33.0 °F 30.5 in Calm     67% 0.000 in
20:04 43.0 °F 33.0 °F 30.5 in Calm     68% 0.000 in
20:09 43.0 °F 33.0 °F 30.5 in Calm     69% 0.000 in
20:14 42.0 °F 33.0 °F 30.5 in Calm     70% 0.000 in
20:19 42.0 °F 33.0 °F 30.5 in Calm     70% 0.000 in
20:24 42.0 °F 33.0 °F 30.5 in Calm     71% 0.000 in
20:29 41.0 °F 33.0 °F 30.5 in Calm     73% 0.000 in
20:34 41.0 °F 33.0 °F 30.5 in Calm     73% 0.000 in
20:39 41.0 °F 33.0 °F 30.5 in Calm     74% 0.000 in
20:44 41.0 °F 33.0 °F 30.5 in Calm     75% 0.000 in
20:49 40.0 °F 33.0 °F 30.5 in Calm     75% 0.000 in
20:54 40.0 °F 33.0 °F 30.5 in Calm     75% 0.000 in
20:59 40.0 °F 33.0 °F 30.5 in Calm     76% 0.000 in
21:04 39.0 °F 33.0 °F 30.5 in Calm     77% 0.000 in
21:09 39.0 °F 33.0 °F 30.5 in Calm     78% 0.000 in
21:14 39.0 °F 32.0 °F 30.5 in Calm     78% 0.000 in
21:19 39.0 °F 32.0 °F 30.5 in Calm     78% 0.000 in
21:24 39.0 °F 32.0 °F 30.5 in Calm     79% 0.000 in
21:29 38.0 °F 32.0 °F 30.5 in Calm     79% 0.000 in
21:34 38.0 °F 32.0 °F 30.5 in Calm     80% 0.000 in
21:39 38.0 °F 32.0 °F 30.5 in Calm     80% 0.000 in
21:44 38.0 °F 32.0 °F 30.5 in Calm     80% 0.000 in
21:49 37.0 °F 32.0 °F 30.5 in Calm     80% 0.000 in
21:54 37.0 °F 32.0 °F 30.5 in Calm     81% 0.000 in
21:59 37.0 °F 32.0 °F 30.5 in Calm     82% 0.000 in
22:04 37.0 °F 32.0 °F 30.5 in Calm     82% 0.000 in
22:09 36.0 °F 31.0 °F 30.5 in Calm     82% 0.000 in
22:14 36.0 °F 31.0 °F 30.5 in Calm     82% 0.000 in
22:19 36.0 °F 31.0 °F 30.5 in Calm     83% 0.000 in
22:24 36.0 °F 31.0 °F 30.5 in Calm     83% 0.000 in
22:29 36.0 °F 31.0 °F 30.5 in Calm     83% 0.000 in
22:34 35.0 °F 31.0 °F 30.5 in Calm     83% 0.000 in
22:39 35.0 °F 31.0 °F 30.5 in Calm     84% 0.000 in
22:44 35.0 °F 31.0 °F 30.5 in Calm     84% 0.000 in
22:49 35.0 °F 31.0 °F 30.5 in Calm     84% 0.000 in
22:54 35.0 °F 31.0 °F 30.5 in Calm     85% 0.000 in
22:59 35.0 °F 31.0 °F 30.5 in Calm     85% 0.000 in
23:04 35.0 °F 31.0 °F 30.5 in Calm     85% 0.000 in
23:09 34.0 °F 31.0 °F 30.5 in Calm     86% 0.000 in
23:14 34.0 °F 30.0 °F 30.5 in Calm     86% 0.000 in
23:19 34.0 °F 30.0 °F 30.5 in Calm     86% 0.000 in
23:24 34.0 °F 30.0 °F 30.5 in Calm     86% 0.000 in
23:29 34.0 °F 30.0 °F 30.5 in Calm     86% 0.000 in
23:34 34.0 °F 30.0 °F 30.5 in Calm     87% 0.000 in
23:39 34.0 °F 30.0 °F 30.5 in Calm     88% 0.000 in
23:44 34.0 °F 30.0 °F 30.5 in Calm     88% 0.000 in
23:49 33.0 °F 30.0 °F 30.5 in Calm     88% 0.000 in
23:54 33.0 °F 30.0 °F 30.5 in Calm     88% 0.000 in
23:59 33.0 °F 30.0 °F 30.5 in Calm     88% 0.000 in
East Ellijay Weather
Compliments of Weather Underground - 2 mb